Time;durP1;ratioP1;P1;durP2;ratioP2;P2;SDS_P1;SDS_P2;PMS_P1;PMS_P2;Temp;Humidity;BMP_temperature;BMP_pressure;BME280_temperature;BME280_humidity;BME280_pressure;Samples;Min_cycle;Max_cycle;Signal;HPM_P1;HPM_P2
2022/12/19 00:01:58;;;;;;;69.82;30.38;;;0.80;99.90;;;;;;5070861;28;20039;-73
2022/12/19 00:04:24;;;;;;;60.63;28.40;;;0.80;99.90;;;;;;5072125;28;20025;-73
2022/12/19 00:06:49;;;;;;;68.30;29.20;;;0.80;99.90;;;;;;5070744;28;20035;-72
2022/12/19 00:09:15;;;;;;;69.80;31.15;;;0.70;99.90;;;;;;5067578;28;20037;-73
2022/12/19 00:11:41;;;;;;;72.53;31.65;;;0.80;99.90;;;;;;5066938;28;20036;-73
2022/12/19 00:14:09;;;;;;;71.57;30.65;;;0.80;99.90;;;;;;5071863;28;20081;-73
2022/12/19 00:16:34;;;;;;;64.13;29.40;;;0.80;99.90;;;;;;5062917;28;20031;-73
2022/12/19 00:19:00;;;;;;;62.20;29.25;;;0.80;99.90;;;;;;5072548;28;20041;-73
2022/12/19 00:21:29;;;;;;;67.68;29.73;;;0.80;99.90;;;;;;5071015;28;20025;-73
2022/12/19 00:23:55;;;;;;;76.25;31.35;;;0.70;99.90;;;;;;5054880;28;20035;-73
2022/12/19 00:26:23;;;;;;;76.10;32.05;;;0.70;99.90;;;;;;5071799;28;20028;-73
2022/12/19 00:28:54;;;;;;;76.22;31.80;;;0.80;99.90;;;;;;5073136;28;20439;-73
2022/12/19 00:31:21;;;;;;;73.45;31.33;;;0.80;99.90;;;;;;5068285;28;20020;-72
2022/12/19 00:33:48;;;;;;;70.18;31.58;;;0.70;99.90;;;;;;5069910;28;20035;-73
2022/12/19 00:36:23;;;;;;;82.50;34.20;;;0.80;99.90;;;;;;5070918;28;20511;-72
2022/12/19 00:38:50;;;;;;;75.28;30.65;;;0.80;99.90;;;;;;5061677;28;20032;-72
2022/12/19 00:41:35;;;;;;;74.18;33.22;;;0.80;99.90;;;;;;5065284;28;20033;-72
2022/12/19 00:44:04;;;;;;;80.32;31.48;;;0.80;99.90;;;;;;5071238;28;20031;-72
2022/12/19 00:46:31;;;;;;;77.32;30.45;;;0.80;99.90;;;;;;5071650;28;20056;-73
2022/12/19 00:48:57;;;;;;;82.95;35.13;;;0.80;99.90;;;;;;5069406;28;22026;-73
2022/12/19 00:51:26;;;;;;;79.70;31.45;;;0.80;99.90;;;;;;5065300;28;20024;-72
2022/12/19 00:53:54;;;;;;;80.88;32.78;;;0.80;99.90;;;;;;5068889;28;20048;-73
2022/12/19 00:56:26;;;;;;;82.68;35.97;;;0.90;99.90;;;;;;5069015;28;20559;-72
2022/12/19 00:58:53;;;;;;;88.30;35.15;;;0.90;99.90;;;;;;5072002;28;20055;-72
2022/12/19 01:01:21;;;;;;;79.43;34.13;;;0.90;99.90;;;;;;5067630;28;20029;-73
2022/12/19 01:03:47;;;;;;;71.32;30.65;;;0.90;99.90;;;;;;5072344;28;20039;-73
2022/12/19 01:06:13;;;;;;;83.25;35.45;;;1.00;99.90;;;;;;5070474;28;20108;-72
2022/12/19 01:08:38;;;;;;;85.97;34.88;;;1.00;99.90;;;;;;5072642;28;20443;-72
2022/12/19 01:11:05;;;;;;;90.97;35.30;;;1.10;99.90;;;;;;5070231;28;20099;-72
2022/12/19 01:13:33;;;;;;;82.78;33.97;;;1.10;99.90;;;;;;5064441;28;20036;-72
2022/12/19 01:16:08;;;;;;;77.28;31.40;;;1.10;99.90;;;;;;5070782;28;20029;-72
2022/12/19 01:18:34;;;;;;;87.80;36.95;;;1.20;99.90;;;;;;5072280;28;20041;-73
2022/12/19 01:21:03;;;;;;;76.25;33.90;;;1.20;99.90;;;;;;5068108;28;20016;-73
2022/12/19 01:23:28;;;;;;;78.10;32.88;;;1.30;99.90;;;;;;5069473;28;20086;-72
2022/12/19 01:25:55;;;;;;;78.20;33.03;;;1.30;99.90;;;;;;5071839;28;20024;-72
2022/12/19 01:28:21;;;;;;;86.15;35.35;;;1.40;99.90;;;;;;5072189;28;20042;-71
2022/12/19 01:30:47;;;;;;;90.20;36.53;;;1.40;99.90;;;;;;5067365;28;20553;-73
2022/12/19 01:33:15;;;;;;;82.10;32.83;;;1.40;99.90;;;;;;5070550;28;20124;-72
2022/12/19 01:35:41;;;;;;;84.72;33.95;;;1.40;99.90;;;;;;5067154;28;20021;-72
2022/12/19 01:38:12;;;;;;;86.70;35.80;;;1.50;99.90;;;;;;5066523;28;20036;-72
2022/12/19 01:40:38;;;;;;;85.50;36.55;;;1.50;99.90;;;;;;5062439;28;20107;-71
2022/12/19 01:43:04;;;;;;;81.90;33.42;;;1.50;99.90;;;;;;5059694;28;20591;-72
2022/12/19 01:45:34;;;;;;;89.45;35.25;;;1.50;99.90;;;;;;5060947;28;20024;-72
2022/12/19 01:48:24;;;;;;;85.18;33.20;;;1.50;99.90;;;;;;5071758;28;20028;-72
2022/12/19 01:50:58;;;;;;;85.55;33.55;;;1.60;99.90;;;;;;5066437;28;20081;-72
2022/12/19 01:53:26;;;;;;;75.65;33.75;;;1.60;99.90;;;;;;5062908;28;20025;-72
2022/12/19 01:55:52;;;;;;;89.45;34.33;;;1.60;99.90;;;;;;5069064;28;20033;-71
2022/12/19 01:58:18;;;;;;;81.78;32.40;;;1.60;99.90;;;;;;5063592;28;20071;-71
2022/12/19 02:00:44;;;;;;;74.30;30.15;;;1.60;99.90;;;;;;5064308;28;20024;-72
2022/12/19 02:03:17;;;;;;;76.45;30.48;;;1.70;99.90;;;;;;5066318;28;20021;-72
2022/12/19 02:05:44;;;;;;;74.05;30.80;;;1.70;99.90;;;;;;5069623;28;20035;-72
2022/12/19 02:08:10;;;;;;;81.00;31.48;;;1.80;99.90;;;;;;5060803;28;20419;-72
2022/12/19 02:10:35;;;;;;;71.90;29.90;;;1.80;99.90;;;;;;5066574;28;20024;-72
2022/12/19 02:13:01;;;;;;;79.22;32.90;;;1.90;99.90;;;;;;5057764;28;20031;-72
2022/12/19 02:15:31;;;;;;;68.75;28.88;;;1.90;99.90;;;;;;5069552;28;20098;-72
2022/12/19 02:18:03;;;;;;;69.82;28.83;;;2.00;99.90;;;;;;5061474;28;20037;-72
2022/12/19 02:20:50;;;;;;;69.15;29.85;;;2.00;99.90;;;;;;5069220;28;20382;-72
2022/12/19 02:23:25;;;;;;;66.90;29.58;;;2.10;99.90;;;;;;5066363;28;20039;-72
2022/12/19 02:26:25;;;;;;;67.15;25.77;;;2.10;99.90;;;;;;5061646;28;20028;-71
2022/12/19 02:29:02;;;;;;;57.80;25.70;;;2.20;99.90;;;;;;5067907;28;20044;-71
2022/12/19 02:31:27;;;;;;;56.53;25.85;;;2.20;99.90;;;;;;5069189;28;20024;-71
2022/12/19 02:34:22;;;;;;;65.18;26.83;;;2.20;99.90;;;;;;5069299;28;20077;-71
2022/12/19 02:37:04;;;;;;;67.03;28.20;;;2.30;99.90;;;;;;5056842;28;20070;-72
2022/12/19 02:40:12;;;;;;;63.13;26.88;;;2.30;99.90;;;;;;5068813;28;20475;-70
2022/12/19 02:42:42;;;;;;;64.20;27.33;;;2.40;99.90;;;;;;5068017;28;20040;-71
2022/12/19 02:45:10;;;;;;;63.13;28.30;;;2.40;99.90;;;;;;5058456;28;20024;-71
2022/12/19 02:47:37;;;;;;;59.83;27.05;;;2.40;99.90;;;;;;5061382;28;20715;-71
2022/12/19 02:50:03;;;;;;;64.25;27.50;;;2.50;99.90;;;;;;5062646;28;20028;-72
2022/12/19 02:52:32;;;;;;;74.18;28.30;;;2.50;99.90;;;;;;5068340;28;20112;-71
2022/12/19 02:55:19;;;;;;;56.65;25.75;;;2.50;99.90;;;;;;5067182;28;20024;-71
2022/12/19 02:58:08;;;;;;;63.30;27.52;;;2.60;99.90;;;;;;5068043;28;20083;-71
2022/12/19 03:01:01;;;;;;;58.92;26.58;;;2.60;99.90;;;;;;5065147;28;20496;-71
2022/12/19 03:03:51;;;;;;;54.35;22.92;;;2.60;99.90;;;;;;5066860;28;20405;-71
2022/12/19 03:06:28;;;;;;;60.88;26.00;;;2.70;99.90;;;;;;5060003;28;20082;-71
2022/12/19 03:09:08;;;;;;;67.00;28.60;;;2.80;99.90;;;;;;5067828;28;20036;-71
2022/12/19 03:11:37;;;;;;;67.28;28.52;;;2.80;99.90;;;;;;5064713;28;20025;-72
2022/12/19 03:14:08;;;;;;;70.32;29.08;;;2.90;99.90;;;;;;5059588;28;20642;-71
2022/12/19 03:16:35;;;;;;;61.92;25.35;;;2.80;99.90;;;;;;5068971;28;20032;-70
2022/12/19 03:19:01;;;;;;;60.30;24.60;;;2.90;99.90;;;;;;5055843;28;20059;-72
2022/12/19 03:21:37;;;;;;;61.78;27.73;;;2.80;99.90;;;;;;5065968;28;20025;-71
2022/12/19 03:24:05;;;;;;;57.35;24.52;;;2.90;99.90;;;;;;5062054;28;20032;-71
2022/12/19 03:26:42;;;;;;;64.10;27.25;;;2.90;99.90;;;;;;5066619;28;20511;-71
2022/12/19 03:29:16;;;;;;;54.17;24.67;;;2.90;99.90;;;;;;5066430;28;20417;-71
2022/12/19 03:31:44;;;;;;;54.55;25.00;;;2.90;99.90;;;;;;5068029;28;20027;-71
2022/12/19 03:34:28;;;;;;;53.40;25.02;;;3.00;99.90;;;;;;5064566;28;20024;-71
2022/12/19 03:36:57;;;;;;;60.92;26.48;;;3.00;99.90;;;;;;5068072;28;20084;-71
2022/12/19 03:39:25;;;;;;;68.47;28.70;;;3.00;99.90;;;;;;5063507;28;20032;-71
2022/12/19 03:44:39;;;;;;;57.30;24.77;;;3.10;99.90;;;;;;5067273;28;20032;-71
2022/12/19 03:47:16;;;;;;;61.78;25.13;;;3.10;99.90;;;;;;5067594;28;20491;-71
2022/12/19 03:49:44;;;;;;;54.63;24.77;;;3.10;99.90;;;;;;5066840;28;20029;-70
2022/12/19 03:52:34;;;;;;;62.92;25.23;;;3.10;99.90;;;;;;5067874;28;20024;-71
2022/12/19 03:55:11;;;;;;;59.60;25.85;;;3.20;99.90;;;;;;5064851;28;20067;-71
2022/12/19 03:57:46;;;;;;;54.35;25.13;;;3.20;99.90;;;;;;5065672;28;20128;-72
2022/12/19 04:00:15;;;;;;;60.70;25.33;;;3.20;99.90;;;;;;5064816;28;20037;-71
2022/12/19 04:02:46;;;;;;;60.60;26.40;;;3.30;99.90;;;;;;5068972;28;20044;-71
2022/12/19 04:05:17;;;;;;;45.88;21.98;;;3.30;99.90;;;;;;5067718;28;20032;-71
2022/12/19 04:07:43;;;;;;;64.15;27.20;;;3.30;99.90;;;;;;5060478;28;20492;-71
2022/12/19 04:10:15;;;;;;;48.58;23.10;;;3.40;99.90;;;;;;5066827;28;20044;-72
2022/12/19 04:13:12;;;;;;;55.97;26.63;;;3.40;99.90;;;;;;5068530;28;20028;-71
2022/12/19 04:15:53;;;;;;;56.03;24.73;;;3.50;99.90;;;;;;5066129;28;20049;-71
2022/12/19 04:18:19;;;;;;;49.58;21.42;;;3.50;99.90;;;;;;5069136;28;20058;-71
2022/12/19 04:20:53;;;;;;;48.58;22.80;;;3.60;99.90;;;;;;5072477;28;20036;-71
2022/12/19 04:23:25;;;;;;;53.60;23.90;;;3.70;99.90;;;;;;5071494;28;20107;-71
2022/12/19 04:25:55;;;;;;;47.35;21.45;;;3.70;99.90;;;;;;5072286;28;20037;-71
2022/12/19 04:28:25;;;;;;;49.63;22.08;;;3.80;99.90;;;;;;5068450;28;20107;-71
2022/12/19 04:30:52;;;;;;;45.15;20.50;;;3.80;99.90;;;;;;5069878;28;20024;-71
2022/12/19 04:33:18;;;;;;;55.17;22.58;;;3.80;99.90;;;;;;5065867;28;20044;-71
2022/12/19 04:35:43;;;;;;;40.53;20.17;;;3.80;99.90;;;;;;5071133;28;20024;-70
2022/12/19 04:38:09;;;;;;;48.33;22.23;;;3.90;99.90;;;;;;5067915;28;20492;-71
2022/12/19 04:40:35;;;;;;;53.42;23.40;;;3.90;99.90;;;;;;5050472;28;20082;-70
2022/12/19 04:43:00;;;;;;;45.92;22.42;;;4.00;99.90;;;;;;5070651;28;20109;-70
2022/12/19 04:45:26;;;;;;;45.83;22.88;;;4.00;99.90;;;;;;5070013;28;20056;-71
2022/12/19 04:47:51;;;;;;;44.25;22.02;;;4.10;99.90;;;;;;5070349;28;20517;-70
2022/12/19 04:50:17;;;;;;;40.95;20.38;;;4.10;99.90;;;;;;5050062;28;20570;-71
2022/12/19 04:52:42;;;;;;;43.88;19.95;;;4.10;99.90;;;;;;5069819;28;20077;-70
2022/12/19 04:55:08;;;;;;;44.33;20.33;;;4.10;99.90;;;;;;5056225;28;20427;-71
2022/12/19 04:57:34;;;;;;;43.67;21.00;;;4.20;99.90;;;;;;5066929;28;20127;-71
2022/12/19 04:59:59;;;;;;;46.33;22.75;;;4.20;99.90;;;;;;5068548;28;20123;-71
2022/12/19 05:02:25;;;;;;;42.42;21.67;;;4.20;99.90;;;;;;5070078;28;20082;-71
2022/12/19 05:04:50;;;;;;;43.17;21.23;;;4.20;99.90;;;;;;5067505;28;20091;-70
2022/12/19 05:07:19;;;;;;;45.75;21.52;;;4.30;99.90;;;;;;5071074;28;20040;-70
2022/12/19 05:09:44;;;;;;;46.47;21.42;;;4.30;99.90;;;;;;5063663;28;20031;-71
2022/12/19 05:12:10;;;;;;;43.80;20.83;;;4.30;99.90;;;;;;5064609;28;20492;-71
2022/12/19 05:14:35;;;;;;;47.42;22.48;;;4.40;99.90;;;;;;5065389;28;20036;-70
2022/12/19 05:17:01;;;;;;;43.88;20.70;;;4.40;99.90;;;;;;5064701;28;20482;-72
2022/12/19 05:19:27;;;;;;;41.38;20.27;;;4.40;99.90;;;;;;5053380;28;20055;-71
2022/12/19 05:21:52;;;;;;;41.45;20.20;;;4.50;99.90;;;;;;5071848;28;20055;-70
2022/12/19 05:24:18;;;;;;;46.60;21.67;;;4.50;99.90;;;;;;5061726;28;20487;-72
2022/12/19 05:26:44;;;;;;;33.40;17.80;;;4.60;99.90;;;;;;5066860;28;20384;-71
2022/12/19 05:29:10;;;;;;;35.58;18.25;;;4.60;99.90;;;;;;5067732;28;20431;-71
2022/12/19 05:31:35;;;;;;;38.80;18.63;;;4.60;99.90;;;;;;5069608;28;20030;-71
2022/12/19 05:34:01;;;;;;;34.58;17.52;;;4.70;99.90;;;;;;5066502;28;20032;-70
2022/12/19 05:36:26;;;;;;;32.42;17.13;;;4.70;99.90;;;;;;5068012;28;20499;-70
2022/12/19 05:38:52;;;;;;;37.53;18.40;;;4.80;99.90;;;;;;5070832;28;20056;-71
2022/12/19 05:41:19;;;;;;;33.70;17.98;;;4.80;99.90;;;;;;5068375;28;20756;-71
2022/12/19 05:43:49;;;;;;;34.55;17.40;;;4.80;99.90;;;;;;5070431;28;20028;-71
2022/12/19 05:46:14;;;;;;;32.63;16.42;;;4.90;99.90;;;;;;5070467;28;20108;-71
2022/12/19 05:48:40;;;;;;;31.88;16.55;;;4.90;99.90;;;;;;5070766;28;20099;-72
2022/12/19 05:51:06;;;;;;;34.83;16.33;;;5.00;99.90;;;;;;5067519;28;20083;-71
2022/12/19 05:53:34;;;;;;;30.83;17.08;;;5.00;99.90;;;;;;5071551;28;20108;-71
2022/12/19 05:56:16;;;;;;;31.73;17.45;;;5.10;99.90;;;;;;5062807;28;20096;-71
2022/12/19 05:58:43;;;;;;;30.88;16.48;;;5.10;99.90;;;;;;5049389;28;20044;-72
2022/12/19 06:01:18;;;;;;;30.85;15.85;;;5.10;99.90;;;;;;5051976;28;20216;-71
2022/12/19 06:03:45;;;;;;;32.42;16.67;;;5.20;99.90;;;;;;5055089;28;20060;-71
2022/12/19 06:06:16;;;;;;;30.80;15.95;;;5.20;99.90;;;;;;5056612;28;20039;-71
2022/12/19 06:08:42;;;;;;;29.25;14.75;;;5.20;99.90;;;;;;5049783;28;20539;-71
2022/12/19 06:11:08;;;;;;;35.28;16.45;;;5.30;99.90;;;;;;5051609;28;20032;-71
2022/12/19 06:13:35;;;;;;;26.92;15.35;;;5.30;99.90;;;;;;5054814;28;20116;-72
2022/12/19 06:16:03;;;;;;;28.88;15.82;;;5.40;99.90;;;;;;5052881;28;20024;-71
2022/12/19 06:18:29;;;;;;;30.02;15.20;;;5.50;99.90;;;;;;5052457;28;20078;-72
2022/12/19 06:21:00;;;;;;;31.25;15.93;;;5.50;99.90;;;;;;5052540;28;20060;-71
2022/12/19 06:23:28;;;;;;;24.48;13.55;;;5.60;99.90;;;;;;5063602;28;20515;-71
2022/12/19 06:25:56;;;;;;;24.83;13.63;;;5.60;99.90;;;;;;5049937;28;20044;-71
2022/12/19 06:28:22;;;;;;;28.98;13.85;;;5.70;99.90;;;;;;5049769;28;20047;-72
2022/12/19 06:30:47;;;;;;;21.27;11.90;;;5.70;99.90;;;;;;5052937;28;20153;-72
2022/12/19 06:33:13;;;;;;;29.33;14.25;;;5.80;99.90;;;;;;5046932;28;20119;-71
2022/12/19 06:35:38;;;;;;;22.67;12.75;;;5.80;99.90;;;;;;5049917;28;20033;-72
2022/12/19 06:38:04;;;;;;;24.73;12.98;;;5.90;99.90;;;;;;5048779;28;20043;-73
2022/12/19 06:43:14;;;;;;;21.70;11.55;;;6.00;99.90;;;;;;5051293;28;20086;-71
2022/12/19 06:45:39;;;;;;;23.90;13.07;;;6.10;99.90;;;;;;5054285;28;20037;-71
2022/12/19 06:48:05;;;;;;;21.73;11.93;;;6.20;99.90;;;;;;5052844;28;20032;-71
2022/12/19 06:50:30;;;;;;;22.13;12.20;;;6.20;99.90;;;;;;5049425;28;20108;-72
2022/12/19 06:52:56;;;;;;;20.70;12.00;;;6.30;99.90;;;;;;5050710;28;20044;-71
2022/12/19 06:55:22;;;;;;;25.25;12.85;;;6.30;99.90;;;;;;5051621;28;20086;-71
2022/12/19 06:57:47;;;;;;;22.60;11.75;;;6.40;99.90;;;;;;5053211;28;20056;-71
2022/12/19 07:00:14;;;;;;;21.70;12.00;;;6.50;99.90;;;;;;5050260;28;20032;-71
2022/12/19 07:02:43;;;;;;;23.42;12.63;;;6.50;99.90;;;;;;5062491;28;20025;-72
2022/12/19 07:05:09;;;;;;;20.88;11.63;;;6.50;99.90;;;;;;5065831;28;20095;-72
2022/12/19 07:07:35;;;;;;;21.80;10.52;;;6.50;99.90;;;;;;5063924;28;20029;-71
2022/12/19 07:10:02;;;;;;;17.70;10.73;;;6.60;99.90;;;;;;5062788;28;20025;-72
2022/12/19 07:12:27;;;;;;;18.95;10.55;;;6.60;99.90;;;;;;5049394;28;20032;-72
2022/12/19 07:14:53;;;;;;;20.98;11.65;;;6.70;99.90;;;;;;5051051;28;20562;-71
2022/12/19 07:17:19;;;;;;;21.52;12.15;;;6.70;99.90;;;;;;5047708;28;20448;-71
2022/12/19 07:19:45;;;;;;;23.85;13.73;;;6.70;99.90;;;;;;5047934;28;20048;-71
2022/12/19 07:22:11;;;;;;;20.38;11.93;;;6.80;99.90;;;;;;5050448;28;20028;-71
2022/12/19 07:24:36;;;;;;;20.33;10.95;;;6.80;99.90;;;;;;5048598;28;20150;-72
2022/12/19 07:27:02;;;;;;;20.80;12.13;;;6.80;99.90;;;;;;5045388;28;20032;-72
2022/12/19 07:29:28;;;;;;;15.20;10.48;;;6.90;99.90;;;;;;5051821;28;20025;-72
2022/12/19 07:31:54;;;;;;;22.35;11.60;;;6.90;99.90;;;;;;5045059;28;20140;-72
2022/12/19 07:34:19;;;;;;;19.17;12.15;;;7.00;99.90;;;;;;5050029;28;20111;-74
2022/12/19 07:36:45;;;;;;;16.33;10.95;;;7.00;99.90;;;;;;5048001;28;20036;-73
2022/12/19 07:39:10;;;;;;;20.08;10.63;;;7.10;99.90;;;;;;5049162;28;20051;-72
2022/12/19 07:41:37;;;;;;;17.42;11.13;;;7.20;99.90;;;;;;5047954;28;20036;-72
2022/12/19 07:44:03;;;;;;;21.08;11.45;;;7.20;99.90;;;;;;5034647;28;20409;-73
2022/12/19 07:46:29;;;;;;;18.70;11.95;;;7.30;99.90;;;;;;5052484;28;20024;-73
2022/12/19 07:48:57;;;;;;;17.23;10.98;;;7.30;99.90;;;;;;5051627;28;20554;-73
2022/12/19 07:51:23;;;;;;;18.30;11.13;;;7.40;99.90;;;;;;5039331;28;20120;-73
2022/12/19 07:53:48;;;;;;;16.60;11.20;;;7.40;99.90;;;;;;5053769;28;20050;-72
2022/12/19 07:56:14;;;;;;;17.77;11.13;;;7.40;99.90;;;;;;5051779;28;20053;-72
2022/12/19 07:58:40;;;;;;;16.30;10.68;;;7.40;99.90;;;;;;5050296;28;20097;-73
2022/12/19 08:01:05;;;;;;;18.50;10.73;;;7.50;99.90;;;;;;5051683;28;20032;-72
2022/12/19 08:03:32;;;;;;;15.15;10.55;;;7.50;99.90;;;;;;5056199;28;20031;-71
2022/12/19 08:06:05;;;;;;;17.85;10.65;;;7.50;99.90;;;;;;5057526;28;20039;-72
2022/12/19 08:08:32;;;;;;;15.65;9.70;;;7.50;99.90;;;;;;5056789;28;20052;-72
2022/12/19 08:11:18;;;;;;;17.17;10.55;;;7.50;99.90;;;;;;5054101;28;20123;-72
2022/12/19 08:13:44;;;;;;;13.25;9.27;;;7.60;99.90;;;;;;5055755;28;20081;-72
2022/12/19 08:16:10;;;;;;;15.80;9.55;;;7.60;99.90;;;;;;5052092;28;20048;-72
2022/12/19 08:18:36;;;;;;;13.63;9.27;;;7.60;99.90;;;;;;5057682;28;20067;-72
2022/12/19 08:21:02;;;;;;;13.02;9.05;;;7.60;99.90;;;;;;5047766;28;20031;-73
2022/12/19 08:23:27;;;;;;;14.32;9.73;;;7.60;99.90;;;;;;5052307;28;20032;-72
2022/12/19 08:26:04;;;;;;;16.17;9.68;;;7.60;99.90;;;;;;5066169;28;20029;-73
2022/12/19 08:28:32;;;;;;;16.15;8.93;;;7.60;99.90;;;;;;5054753;28;20029;-73
2022/12/19 08:31:17;;;;;;;15.15;9.10;;;7.60;99.90;;;;;;5047287;28;20039;-73
2022/12/19 08:33:42;;;;;;;9.88;6.68;;;7.70;99.90;;;;;;5050409;28;20032;-72
2022/12/19 08:36:13;;;;;;;15.18;8.80;;;7.70;99.90;;;;;;5052806;28;20036;-74
2022/12/19 08:38:39;;;;;;;27.48;8.23;;;7.70;99.90;;;;;;5059823;28;20055;-73
2022/12/19 08:41:05;;;;;;;12.60;8.27;;;7.70;99.90;;;;;;5071691;28;20044;-73
2022/12/19 08:43:31;;;;;;;10.57;7.88;;;7.70;99.90;;;;;;5064011;28;20125;-72
2022/12/19 08:45:56;;;;;;;17.55;8.15;;;7.70;99.90;;;;;;5047288;28;20564;-73
2022/12/19 08:48:22;;;;;;;14.00;8.10;;;7.80;99.90;;;;;;5048399;28;20021;-73
2022/12/19 08:50:59;;;;;;;15.90;8.27;;;7.80;99.90;;;;;;5053169;28;20020;-73
2022/12/19 08:53:27;;;;;;;11.75;7.10;;;7.80;99.90;;;;;;5047848;28;20028;-73
2022/12/19 08:55:54;;;;;;;13.85;7.65;;;7.80;99.90;;;;;;5044621;28;20130;-72
2022/12/19 08:58:20;;;;;;;11.68;8.18;;;7.80;99.90;;;;;;5061778;28;20049;-73
2022/12/19 09:00:46;;;;;;;11.82;6.80;;;7.80;99.90;;;;;;5069838;28;20046;-73
2022/12/19 09:03:11;;;;;;;12.63;7.35;;;7.80;99.90;;;;;;5071496;28;20039;-73
2022/12/19 09:05:37;;;;;;;11.23;7.15;;;7.80;99.90;;;;;;5071217;28;20102;-73
2022/12/19 09:08:03;;;;;;;15.48;8.45;;;7.80;99.90;;;;;;5060493;28;20025;-73
2022/12/19 09:10:30;;;;;;;13.80;7.85;;;7.80;99.90;;;;;;5069685;28;20028;-73
2022/12/19 09:12:56;;;;;;;11.25;6.82;;;7.80;99.90;;;;;;5072918;28;20024;-73
2022/12/19 09:15:21;;;;;;;9.90;7.07;;;7.80;99.90;;;;;;5069954;28;20028;-73
2022/12/19 09:17:47;;;;;;;12.07;8.07;;;7.80;99.90;;;;;;5071528;28;20450;-73
2022/12/19 09:20:13;;;;;;;12.65;7.53;;;7.90;99.90;;;;;;5069070;28;20685;-73
2022/12/19 09:22:38;;;;;;;12.20;8.05;;;7.90;99.90;;;;;;5071717;28;20031;-73
2022/12/19 09:25:05;;;;;;;10.55;7.80;;;7.90;99.90;;;;;;5062486;28;20024;-73
2022/12/19 09:27:30;;;;;;;13.48;7.43;;;7.90;99.90;;;;;;5071231;28;20025;-73
2022/12/19 09:30:00;;;;;;;12.50;7.63;;;8.00;99.90;;;;;;5074780;28;20029;-74
2022/12/19 09:32:26;;;;;;;14.27;7.78;;;8.00;99.90;;;;;;5066520;28;20024;-73
2022/12/19 09:34:51;;;;;;;12.63;7.40;;;8.00;99.90;;;;;;5071598;28;20024;-73
2022/12/19 09:37:18;;;;;;;10.00;6.53;;;8.10;99.90;;;;;;5065881;28;20085;-73
2022/12/19 09:39:45;;;;;;;12.07;7.28;;;8.10;99.90;;;;;;5052908;28;20127;-73
2022/12/19 09:42:24;;;;;;;12.95;7.68;;;8.20;99.90;;;;;;5070921;28;20024;-73
2022/12/19 09:45:04;;;;;;;12.77;6.55;;;8.20;99.90;;;;;;5054749;28;22735;-73
2022/12/19 09:47:31;;;;;;;11.52;7.13;;;8.20;99.90;;;;;;5072323;28;20027;-72
2022/12/19 09:49:58;;;;;;;10.38;6.85;;;8.30;99.90;;;;;;5073019;28;20060;-72
2022/12/19 09:52:42;;;;;;;10.68;6.25;;;8.30;99.90;;;;;;5052462;28;20039;-72
2022/12/19 09:55:36;;;;;;;12.98;7.30;;;8.30;99.90;;;;;;5086607;28;20111;-72
2022/12/19 09:58:22;;;;;;;12.23;6.85;;;8.30;99.90;;;;;;5068003;28;20445;-72
2022/12/19 10:00:56;;;;;;;9.65;6.93;;;8.30;99.90;;;;;;5073791;28;20066;-72
2022/12/19 10:03:29;;;;;;;9.20;6.50;;;8.40;99.90;;;;;;5070319;28;20021;-72
2022/12/19 10:06:00;;;;;;;10.20;6.18;;;8.40;99.90;;;;;;5070314;28;20184;-72
2022/12/19 10:08:34;;;;;;;11.15;6.95;;;8.40;99.90;;;;;;5066040;28;20035;-72
2022/12/19 10:11:15;;;;;;;9.60;6.60;;;8.40;99.90;;;;;;5067336;28;20110;-72
2022/12/19 10:13:57;;;;;;;12.52;6.90;;;8.40;99.90;;;;;;5072167;28;20036;-72
2022/12/19 10:16:39;;;;;;;12.32;6.32;;;8.40;99.90;;;;;;5067666;28;20032;-72
2022/12/19 10:19:08;;;;;;;15.18;6.97;;;8.40;99.90;;;;;;5070361;28;20452;-72
2022/12/19 10:21:48;;;;;;;9.73;6.53;;;8.40;99.90;;;;;;5071301;28;20029;-72
2022/12/19 10:24:40;;;;;;;11.65;6.55;;;8.50;99.90;;;;;;5055005;28;20036;-73
2022/12/19 10:27:25;;;;;;;9.68;6.28;;;8.50;99.90;;;;;;5040424;28;20447;-73
2022/12/19 10:30:11;;;;;;;11.63;6.30;;;8.50;99.90;;;;;;5064511;28;20082;-72
2022/12/19 10:32:52;;;;;;;10.13;6.80;;;8.50;99.90;;;;;;5060532;28;20433;-74
2022/12/19 10:35:19;;;;;;;10.45;6.55;;;8.50;99.90;;;;;;5040896;28;20032;-72
2022/12/19 10:37:50;;;;;;;13.00;6.13;;;8.60;99.90;;;;;;5042574;28;20081;-72
2022/12/19 10:40:33;;;;;;;8.75;6.07;;;8.70;99.90;;;;;;5058548;28;20464;-73
2022/12/19 10:43:06;;;;;;;11.25;6.20;;;8.70;99.90;;;;;;5063673;28;20498;-72
2022/12/19 10:45:39;;;;;;;8.15;5.45;;;8.80;99.90;;;;;;5047719;28;20085;-72
2022/12/19 10:48:12;;;;;;;11.20;6.10;;;8.80;99.90;;;;;;5047656;28;20033;-73
2022/12/19 10:50:37;;;;;;;12.52;6.10;;;8.80;99.90;;;;;;5046821;28;20118;-72
2022/12/19 10:53:03;;;;;;;9.93;5.82;;;8.80;99.90;;;;;;5048371;28;20032;-73
2022/12/19 10:55:49;;;;;;;9.38;5.78;;;8.80;99.90;;;;;;5070522;28;20033;-73
2022/12/19 10:58:26;;;;;;;10.02;6.25;;;8.80;99.90;;;;;;5070453;28;20036;-73
2022/12/19 11:01:04;;;;;;;9.20;6.13;;;8.80;99.90;;;;;;5069010;28;20086;-73
2022/12/19 11:03:31;;;;;;;10.00;5.80;;;8.90;99.90;;;;;;5068630;28;20594;-73
2022/12/19 11:05:58;;;;;;;9.95;5.20;;;8.90;99.90;;;;;;5069081;28;20039;-73
2022/12/19 11:08:30;;;;;;;10.73;5.93;;;8.90;99.90;;;;;;5061665;28;20027;-73
2022/12/19 11:11:10;;;;;;;9.80;5.40;;;8.90;99.90;;;;;;5064843;28;20029;-73
2022/12/19 11:13:44;;;;;;;8.25;5.10;;;8.90;99.90;;;;;;5067405;28;20357;-73
2022/12/19 11:16:12;;;;;;;9.13;5.75;;;8.90;99.90;;;;;;5057133;28;20040;-73
2022/12/19 11:18:44;;;;;;;11.05;5.30;;;8.90;99.90;;;;;;5054866;28;20036;-73
2022/12/19 11:21:17;;;;;;;9.20;5.65;;;8.90;99.90;;;;;;5051584;28;20038;-73
2022/12/19 11:23:54;;;;;;;8.70;5.97;;;8.90;99.90;;;;;;5050096;28;20033;-74
2022/12/19 11:26:33;;;;;;;9.75;5.43;;;8.90;99.90;;;;;;5047119;28;20035;-73
2022/12/19 11:29:15;;;;;;;9.98;5.60;;;8.90;99.90;;;;;;5047723;28;20036;-74
2022/12/19 11:31:41;;;;;;;11.50;5.35;;;8.90;99.90;;;;;;5049939;28;20374;-73
2022/12/19 11:34:16;;;;;;;11.07;6.03;;;8.90;99.90;;;;;;5049005;28;20578;-73
2022/12/19 11:37:06;;;;;;;8.93;5.53;;;8.90;99.90;;;;;;5050001;28;20916;-74
2022/12/19 11:39:50;;;;;;;11.57;6.20;;;8.90;99.90;;;;;;5033268;28;20404;-73
2022/12/19 11:42:38;;;;;;;8.07;5.60;;;9.00;99.90;;;;;;5035037;28;20036;-74
2022/12/19 11:45:16;;;;;;;10.18;5.88;;;8.90;99.90;;;;;;5032784;28;20385;-74
2022/12/19 11:47:48;;;;;;;11.65;5.78;;;9.00;99.90;;;;;;5048485;28;20050;-74
2022/12/19 11:50:20;;;;;;;7.72;5.03;;;9.00;99.90;;;;;;5048636;28;20562;-74
2022/12/19 11:53:16;;;;;;;8.57;4.93;;;9.00;99.90;;;;;;5049735;28;20040;-74
2022/12/19 11:55:43;;;;;;;11.05;5.03;;;9.00;99.90;;;;;;5054098;28;20029;-73
2022/12/19 11:58:10;;;;;;;7.85;5.30;;;9.00;99.90;;;;;;5058967;28;20090;-73
2022/12/19 12:00:39;;;;;;;9.60;5.22;;;9.10;99.90;;;;;;5069078;28;20048;-73
2022/12/19 12:03:44;;;;;;;7.72;5.15;;;9.10;99.90;;;;;;5050917;28;20173;-73
2022/12/19 12:06:17;;;;;;;6.88;4.95;;;9.10;99.90;;;;;;5041463;28;20040;-73
2022/12/19 12:08:55;;;;;;;;;;;9.10;99.90;;;;;;5047018;28;22346;-74
2022/12/19 12:11:51;;;;;;;6.55;4.35;;;9.10;99.90;;;;;;5043901;28;19916;-73
2022/12/19 12:14:28;;;;;;;6.43;4.10;;;9.20;99.90;;;;;;5069410;28;20487;-74
2022/12/19 12:17:17;;;;;;;7.53;4.43;;;9.20;99.90;;;;;;5070244;28;20095;-73
2022/12/19 12:20:20;;;;;;;6.18;4.30;;;9.30;99.90;;;;;;5051095;28;20058;-73
2022/12/19 12:23:31;;;;;;;9.82;5.30;;;9.30;99.90;;;;;;5064261;28;20040;-73
2022/12/19 12:26:21;;;;;;;6.50;4.40;;;9.30;99.90;;;;;;4985430;28;20162;-73
2022/12/19 12:29:12;;;;;;;9.48;4.55;;;9.40;99.90;;;;;;4969503;28;20023;-73
2022/12/19 12:32:03;;;;;;;8.93;4.85;;;9.40;99.90;;;;;;5044291;28;20518;-73
2022/12/19 12:34:49;;;;;;;8.13;4.75;;;9.50;99.90;;;;;;5069060;28;20035;-73
2022/12/19 12:37:24;;;;;;;7.20;4.68;;;9.50;99.90;;;;;;5073654;28;20066;-74
2022/12/19 12:40:28;;;;;;;7.35;4.40;;;9.50;99.90;;;;;;5073521;28;20036;-74
2022/12/19 12:43:22;;;;;;;6.82;3.72;;;9.50;99.90;;;;;;5048294;28;20081;-74
2022/12/19 12:45:48;;;;;;;5.75;3.60;;;9.50;99.90;;;;;;5062256;28;20064;-74
2022/12/19 12:48:26;;;;;;;6.97;3.85;;;9.50;99.90;;;;;;5072947;28;20503;-72
2022/12/19 12:50:52;;;;;;;7.03;3.90;;;9.60;99.90;;;;;;5073153;28;20033;-72
2022/12/19 12:53:23;;;;;;;6.50;3.60;;;9.60;99.90;;;;;;5072027;28;20115;-72
2022/12/19 12:55:50;;;;;;;7.95;3.53;;;9.70;99.90;;;;;;5071850;28;20492;-73
2022/12/19 12:58:41;;;;;;;6.25;3.60;;;9.80;99.90;;;;;;5049051;28;20049;-73
2022/12/19 13:01:16;;;;;;;6.35;3.55;;;9.80;99.90;;;;;;5041560;28;20036;-73
2022/12/19 13:03:50;;;;;;;6.70;4.25;;;9.90;99.90;;;;;;5028621;28;20064;-74
2022/12/19 13:06:42;;;;;;;5.07;3.80;;;9.90;99.90;;;;;;5030190;28;20079;-73
2022/12/19 13:09:16;;;;;;;6.25;3.38;;;10.00;99.90;;;;;;5028510;28;20136;-73
2022/12/19 13:14:38;;;;;;;5.55;3.17;;;10.00;99.90;;;;;;5027890;28;21626;-75